createdAt,value
2022-09-23T00:02:11.771Z,9.83
2022-09-23T00:04:32.704Z,10.03
2022-09-23T00:06:53.868Z,9.37
2022-09-23T00:09:14.979Z,9.33
2022-09-23T00:11:36.046Z,9.37
2022-09-23T00:13:58.637Z,9.90
2022-09-23T00:16:21.590Z,10.53
2022-09-23T00:18:44.873Z,9.93
2022-09-23T00:21:06.438Z,9.80
2022-09-23T00:23:27.886Z,9.13
2022-09-23T00:25:56.231Z,9.20
2022-09-23T00:28:17.200Z,11.83
2022-09-23T00:30:41.286Z,8.63
2022-09-23T00:33:02.540Z,9.07
2022-09-23T00:35:25.374Z,9.70
2022-09-23T00:37:46.644Z,9.07
2022-09-23T00:40:08.700Z,9.87
2022-09-23T00:42:30.112Z,9.40
2022-09-23T00:44:52.437Z,9.00
2022-09-23T00:47:15.501Z,9.43
2022-09-23T00:49:36.397Z,8.70
2022-09-23T00:52:01.653Z,9.60
2022-09-23T00:54:23.875Z,9.20
2022-09-23T00:56:45.205Z,9.53
2022-09-23T00:59:07.135Z,9.17
2022-09-23T01:01:28.541Z,9.00
2022-09-23T01:03:50.299Z,8.87
2022-09-23T01:06:11.643Z,9.43
2022-09-23T01:08:34.260Z,9.20
2022-09-23T01:11:01.119Z,9.53
2022-09-23T01:13:25.388Z,9.37
2022-09-23T01:15:49.505Z,10.10
2022-09-23T01:18:18.438Z,10.63
2022-09-23T01:20:50.495Z,10.07
2022-09-23T01:23:21.834Z,10.80
2022-09-23T01:25:55.934Z,10.23
2022-09-23T01:28:27.256Z,10.87
2022-09-23T01:30:53.170Z,10.10
2022-09-23T01:33:17.113Z,10.30
2022-09-23T01:35:56.067Z,10.87
2022-09-23T01:38:27.943Z,13.23
2022-09-23T01:40:51.883Z,12.53
2022-09-23T01:43:15.982Z,11.13
2022-09-23T01:45:39.834Z,12.37
2022-09-23T01:48:03.526Z,13.40
2022-09-23T01:50:59.136Z,10.57
2022-09-23T01:53:23.248Z,11.43
2022-09-23T01:55:49.045Z,9.83
2022-09-23T01:58:13.244Z,10.33
2022-09-23T02:00:36.180Z,10.73
2022-09-23T02:02:59.314Z,11.33
2022-09-23T02:05:25.134Z,13.33
2022-09-23T02:07:48.287Z,13.27
2022-09-23T02:10:14.105Z,11.93
2022-09-23T02:12:38.176Z,12.27
2022-09-23T02:15:01.857Z,11.47
2022-09-23T02:17:25.948Z,10.80
2022-09-23T02:19:49.719Z,10.87
2022-09-23T02:22:14.004Z,10.70
2022-09-23T02:24:37.387Z,10.10
2022-09-23T02:27:00.271Z,9.83
2022-09-23T02:29:22.664Z,10.00
2022-09-23T02:31:45.450Z,10.63
2022-09-23T02:34:14.000Z,11.20
2022-09-23T02:36:38.876Z,11.20
2022-09-23T02:39:03.539Z,11.57
2022-09-23T02:41:28.159Z,11.53
2022-09-23T02:43:53.843Z,12.17
2022-09-23T02:46:15.870Z,12.03
2022-09-23T02:48:40.643Z,12.10
2022-09-23T02:51:03.623Z,11.33
2022-09-23T02:53:25.599Z,10.83
2022-09-23T02:55:48.364Z,10.73
2022-09-23T02:58:10.869Z,10.10
2022-09-23T03:00:36.416Z,9.77
2022-09-23T03:03:06.466Z,9.97
2022-09-23T03:05:30.137Z,9.87
2022-09-23T03:07:59.125Z,10.20
2022-09-23T03:10:23.772Z,10.73
2022-09-23T03:12:52.950Z,10.70
2022-09-23T03:15:19.453Z,10.70
2022-09-23T03:17:46.814Z,10.77
2022-09-23T03:20:09.734Z,10.73
2022-09-23T03:22:32.971Z,11.23
2022-09-23T03:24:56.360Z,10.60
2022-09-23T03:27:19.355Z,10.63
2022-09-23T03:29:45.563Z,10.80
2022-09-23T03:32:08.114Z,11.47
2022-09-23T03:34:30.997Z,11.27
2022-09-23T03:36:57.011Z,10.90
2022-09-23T03:39:24.219Z,11.40
2022-09-23T03:41:50.732Z,11.57
2022-09-23T03:44:13.031Z,11.37
2022-09-23T03:46:36.271Z,11.00
2022-09-23T03:49:00.456Z,10.63
2022-09-23T03:51:23.776Z,10.27
2022-09-23T03:53:45.093Z,10.63
2022-09-23T03:56:06.510Z,10.80
2022-09-23T03:58:27.694Z,10.50
2022-09-23T04:00:50.107Z,10.77
2022-09-23T04:03:12.764Z,9.37
2022-09-23T04:05:34.065Z,9.17
2022-09-23T04:07:55.493Z,9.70
2022-09-23T04:10:16.821Z,9.80
2022-09-23T04:12:38.848Z,10.43
2022-09-23T04:15:00.056Z,10.33
2022-09-23T04:17:21.267Z,10.00
2022-09-23T04:19:45.032Z,9.87
2022-09-23T04:22:06.225Z,12.63
2022-09-23T04:24:27.255Z,15.93
2022-09-23T04:26:51.342Z,14.17
2022-09-23T04:29:12.621Z,12.40
2022-09-23T04:31:34.325Z,10.50
2022-09-23T04:33:55.656Z,12.13
2022-09-23T04:36:18.336Z,11.23
2022-09-23T04:38:39.412Z,22.13
2022-09-23T04:41:00.727Z,15.30
2022-09-23T04:43:23.407Z,13.97
2022-09-23T04:45:44.707Z,11.60
2022-09-23T04:48:05.785Z,12.13
2022-09-23T04:50:27.378Z,16.87
2022-09-23T04:52:49.859Z,12.10
2022-09-23T04:55:11.405Z,10.90
2022-09-23T04:57:33.231Z,10.10
2022-09-23T04:59:55.981Z,10.27
2022-09-23T05:02:17.381Z,10.23
2022-09-23T05:04:39.280Z,10.70
2022-09-23T05:07:03.474Z,10.57
2022-09-23T05:09:26.327Z,11.07
2022-09-23T05:11:47.985Z,11.37
2022-09-23T05:14:08.831Z,10.47
2022-09-23T05:16:30.118Z,10.53
2022-09-23T05:18:51.708Z,9.97
2022-09-23T05:21:14.125Z,9.40
2022-09-23T05:23:35.089Z,10.50
2022-09-23T05:26:01.531Z,9.33
2022-09-23T05:28:22.615Z,10.10
2022-09-23T05:30:44.482Z,9.63
2022-09-23T05:33:05.817Z,9.87
2022-09-23T05:35:27.044Z,10.77
2022-09-23T05:37:48.157Z,10.30
2022-09-23T05:40:09.892Z,10.73
2022-09-23T05:42:32.474Z,8.93
2022-09-23T05:44:53.812Z,10.27
2022-09-23T05:47:15.594Z,9.30
2022-09-23T05:49:55.631Z,9.77
2022-09-23T05:52:17.820Z,9.67
2022-09-23T05:54:40.189Z,9.87
2022-09-23T05:57:04.369Z,9.80
2022-09-23T05:59:27.590Z,10.43
2022-09-23T06:01:51.068Z,11.33
2022-09-23T06:04:15.209Z,10.93
2022-09-23T06:06:37.598Z,10.57
2022-09-23T06:08:59.650Z,11.20
2022-09-23T06:11:21.448Z,10.57
2022-09-23T06:13:42.899Z,10.53
2022-09-23T06:16:05.795Z,10.43
2022-09-23T06:18:26.851Z,10.30
2022-09-23T06:20:48.004Z,11.63
2022-09-23T06:23:10.702Z,10.60
2022-09-23T06:25:32.513Z,10.77
2022-09-23T06:27:55.283Z,11.17
2022-09-23T06:30:17.273Z,10.83
2022-09-23T06:32:40.082Z,11.23
2022-09-23T06:35:01.102Z,11.83
2022-09-23T06:37:23.438Z,11.47
2022-09-23T06:39:44.649Z,13.27
2022-09-23T06:42:07.803Z,9.90
2022-09-23T06:44:29.372Z,10.47
2022-09-23T06:46:51.630Z,9.67
2022-09-23T06:49:14.372Z,9.77
2022-09-23T06:51:35.319Z,9.30
2022-09-23T06:53:56.731Z,9.47
2022-09-23T06:56:19.805Z,9.57
2022-09-23T06:58:40.875Z,9.20
2022-09-23T07:01:02.643Z,9.63
2022-09-23T07:03:23.851Z,8.63
2022-09-23T07:05:46.516Z,9.00
2022-09-23T07:08:08.337Z,10.30
2022-09-23T07:10:31.035Z,9.03
2022-09-23T07:12:52.350Z,8.90
2022-09-23T07:15:15.333Z,12.23
2022-09-23T07:17:36.713Z,9.27
2022-09-23T07:19:58.377Z,9.50
2022-09-23T07:22:20.617Z,10.10
2022-09-23T07:24:41.909Z,9.40
2022-09-23T07:27:03.248Z,9.00
2022-09-23T07:29:24.592Z,8.43
2022-09-23T07:31:46.006Z,9.20
2022-09-23T07:34:07.731Z,8.27
2022-09-23T07:36:30.930Z,8.17
2022-09-23T07:38:53.935Z,7.97
2022-09-23T07:41:15.785Z,8.10
2022-09-23T07:43:37.121Z,7.80
2022-09-23T07:45:57.975Z,7.63
2022-09-23T07:48:19.208Z,7.33
2022-09-23T07:50:40.877Z,7.93
2022-09-23T07:53:02.945Z,7.13
2022-09-23T07:55:25.285Z,8.40
2022-09-23T07:57:46.397Z,7.87
2022-09-23T08:00:08.713Z,7.50
2022-09-23T08:02:30.081Z,7.20
2022-09-23T08:04:51.193Z,7.77
2022-09-23T08:07:13.239Z,6.77
2022-09-23T08:09:38.213Z,7.80
2022-09-23T08:12:01.028Z,7.73
2022-09-23T08:14:23.264Z,6.83
2022-09-23T08:16:45.264Z,5.90
2022-09-23T08:19:06.582Z,7.00
2022-09-23T08:21:27.785Z,7.23
2022-09-23T08:23:49.836Z,6.37
2022-09-23T08:26:19.456Z,5.63
2022-09-23T08:28:45.964Z,5.90
2022-09-23T08:31:08.193Z,6.67
2022-09-23T08:33:29.170Z,6.07
2022-09-23T08:35:50.421Z,6.57
2022-09-23T08:38:11.843Z,6.27
2022-09-23T08:40:34.524Z,5.83
2022-09-23T08:42:55.598Z,6.13
2022-09-23T08:45:21.251Z,5.60
2022-09-23T08:47:45.734Z,6.07
2022-09-23T08:50:08.309Z,5.40
2022-09-23T08:52:32.959Z,5.57
2022-09-23T08:54:55.607Z,5.60
2022-09-23T08:57:22.038Z,5.43
2022-09-23T08:59:45.037Z,5.47
2022-09-23T09:02:14.717Z,4.90
2022-09-23T09:04:40.314Z,5.10
2022-09-23T09:07:31.694Z,4.43
2022-09-23T09:09:47.473Z,4.73
2022-09-23T09:12:14.879Z,4.50
2022-09-23T09:14:38.086Z,5.17
2022-09-23T09:17:01.508Z,4.60
2022-09-23T09:19:33.734Z,5.20
2022-09-23T09:21:55.780Z,4.53
2022-09-23T09:24:18.611Z,4.30
2022-09-23T09:26:40.920Z,4.63
2022-09-23T09:29:23.335Z,4.60
2022-09-23T09:31:46.439Z,4.40
2022-09-23T09:34:12.044Z,4.10
2022-09-23T09:36:39.047Z,4.40
2022-09-23T09:39:00.044Z,5.50
2022-09-23T09:41:24.610Z,6.10
2022-09-23T09:43:56.437Z,5.07
2022-09-23T09:46:24.366Z,7.27
2022-09-23T09:48:53.678Z,4.20
2022-09-23T09:51:20.363Z,5.83
2022-09-23T09:53:43.232Z,4.90
2022-09-23T09:56:06.058Z,7.50
2022-09-23T09:58:30.016Z,5.20
2022-09-23T10:00:52.790Z,4.47
2022-09-23T10:03:26.430Z,5.90
2022-09-23T10:05:49.413Z,4.60
2022-09-23T10:08:22.733Z,4.80
2022-09-23T10:10:54.512Z,4.70
2022-09-23T10:13:16.744Z,4.63
2022-09-23T10:15:44.915Z,4.73
2022-09-23T10:18:19.565Z,4.97
2022-09-23T10:20:40.863Z,6.77
2022-09-23T10:23:06.781Z,5.47
2022-09-23T10:25:27.969Z,5.20
2022-09-23T10:27:50.426Z,6.57
2022-09-23T10:30:22.180Z,5.07
2022-09-23T10:32:44.927Z,5.63
2022-09-23T10:35:14.557Z,5.70
2022-09-23T10:37:37.841Z,5.40
2022-09-23T10:40:21.803Z,4.83
2022-09-23T10:43:11.675Z,4.57
2022-09-23T10:45:52.230Z,5.10
2022-09-23T10:48:18.612Z,5.17
2022-09-23T10:50:42.483Z,5.40
2022-09-23T10:53:05.947Z,4.67
2022-09-23T10:55:42.236Z,5.13
2022-09-23T10:58:13.348Z,4.60
2022-09-23T11:00:40.900Z,4.73
2022-09-23T11:03:09.435Z,4.90
2022-09-23T11:05:38.679Z,4.53
2022-09-23T11:08:04.548Z,4.90
2022-09-23T11:10:46.374Z,5.10
2022-09-23T11:13:13.262Z,4.30
2022-09-23T11:15:41.602Z,4.07
2022-09-23T11:18:17.876Z,4.53
2022-09-23T11:20:45.381Z,6.90
2022-09-23T11:23:29.442Z,5.70
2022-09-23T11:25:54.760Z,4.80
2022-09-23T11:28:29.353Z,5.13
2022-09-23T11:30:54.562Z,5.57
2022-09-23T11:33:23.008Z,5.27
2022-09-23T11:35:47.632Z,7.90
2022-09-23T11:38:12.022Z,5.23
2022-09-23T11:40:33.972Z,5.43
2022-09-23T11:42:58.111Z,5.60
2022-09-23T11:45:23.351Z,4.73
2022-09-23T11:47:48.108Z,5.63
2022-09-23T11:50:15.907Z,4.73
2022-09-23T11:52:38.984Z,5.53
2022-09-23T11:55:06.799Z,5.20
2022-09-23T11:57:46.436Z,6.87
2022-09-23T12:00:15.743Z,5.63
2022-09-23T12:03:00.864Z,4.10
2022-09-23T12:05:27.974Z,4.30
2022-09-23T12:07:54.059Z,4.10
2022-09-23T12:10:15.933Z,4.93
2022-09-23T12:12:42.747Z,5.67
2022-09-23T12:15:05.800Z,5.27
2022-09-23T12:17:51.444Z,3.80
2022-09-23T12:20:30.725Z,3.77
2022-09-23T12:22:56.838Z,4.30
2022-09-23T12:25:34.747Z,5.67
2022-09-23T12:27:57.180Z,3.93
2022-09-23T12:30:20.072Z,3.60
2022-09-23T12:32:42.271Z,3.70
2022-09-23T12:35:03.696Z,5.53
2022-09-23T12:37:28.255Z,3.97
2022-09-23T12:39:49.620Z,3.83
2022-09-23T12:42:15.934Z,4.00
2022-09-23T12:44:41.358Z,4.10
2022-09-23T12:47:24.748Z,4.67
2022-09-23T12:49:46.001Z,4.20
2022-09-23T12:52:14.823Z,3.73
2022-09-23T12:54:38.180Z,4.07
2022-09-23T12:57:03.279Z,3.97
2022-09-23T12:59:28.671Z,4.07
2022-09-23T13:01:50.171Z,3.93
2022-09-23T13:04:43.627Z,3.70
2022-09-23T13:07:07.217Z,3.87
2022-09-23T13:09:30.041Z,3.80
2022-09-23T13:11:53.129Z,3.97
2022-09-23T13:14:16.426Z,4.30
2022-09-23T13:16:41.884Z,4.13
2022-09-23T13:19:03.908Z,4.50
2022-09-23T13:21:43.756Z,5.77
2022-09-23T13:24:21.555Z,4.07
2022-09-23T13:26:45.069Z,4.33
2022-09-23T13:29:07.640Z,3.90
2022-09-23T13:31:28.614Z,3.87
2022-09-23T13:33:51.495Z,3.40
2022-09-23T13:36:14.077Z,4.43
2022-09-23T13:38:35.438Z,5.10
2022-09-23T13:40:58.675Z,3.20
2022-09-23T13:43:23.215Z,3.53
2022-09-23T13:45:45.971Z,3.80
2022-09-23T13:48:10.582Z,3.23
2022-09-23T13:50:35.017Z,3.27
2022-09-23T13:52:57.512Z,4.03
2022-09-23T13:55:30.068Z,3.93
2022-09-23T13:57:57.812Z,4.57
2022-09-23T14:00:21.021Z,3.47
2022-09-23T14:02:44.523Z,4.13
2022-09-23T14:05:12.623Z,3.77
2022-09-23T14:07:33.921Z,3.57
2022-09-23T14:09:56.497Z,3.67
2022-09-23T14:12:22.116Z,3.37
2022-09-23T14:14:44.106Z,3.30
2022-09-23T14:17:06.072Z,4.53
2022-09-23T14:19:28.521Z,3.10
2022-09-23T14:21:49.893Z,4.90
2022-09-23T14:24:15.396Z,3.70
2022-09-23T14:26:36.959Z,3.10
2022-09-23T14:28:58.416Z,5.67
2022-09-23T14:31:19.958Z,4.90
2022-09-23T14:33:41.945Z,3.57
2022-09-23T14:36:08.688Z,3.13
2022-09-23T14:38:48.122Z,3.03
2022-09-23T14:41:19.202Z,3.27
2022-09-23T14:43:40.146Z,4.37
2022-09-23T14:46:01.374Z,3.80
2022-09-23T14:48:24.875Z,4.70
2022-09-23T14:50:48.453Z,3.50
2022-09-23T14:53:33.531Z,2.97
2022-09-23T14:55:57.333Z,3.17
2022-09-23T14:58:19.743Z,5.30
2022-09-23T15:00:40.859Z,3.23
2022-09-23T15:03:03.892Z,3.20
2022-09-23T15:05:31.524Z,3.20
2022-09-23T15:07:53.592Z,3.23
2022-09-23T15:10:20.032Z,3.13
2022-09-23T15:12:46.106Z,3.43
2022-09-23T15:15:13.229Z,2.83
2022-09-23T15:17:35.630Z,3.33
2022-09-23T15:19:57.997Z,3.17
2022-09-23T15:22:19.398Z,3.87
2022-09-23T15:24:44.818Z,3.03
2022-09-23T15:27:12.845Z,5.37
2022-09-23T15:29:33.977Z,4.07
2022-09-23T15:31:55.646Z,3.70
2022-09-23T15:34:17.115Z,4.20
2022-09-23T15:36:38.870Z,3.10
2022-09-23T15:39:02.458Z,3.90
2022-09-23T15:41:24.458Z,6.80
2022-09-23T15:43:47.208Z,5.80
2022-09-23T15:46:12.740Z,4.80
2022-09-23T15:48:37.655Z,3.57
2022-09-23T15:51:03.684Z,4.27
2022-09-23T15:53:26.079Z,3.80
2022-09-23T15:55:47.331Z,3.47
2022-09-23T15:58:08.745Z,3.37
2022-09-23T16:00:31.596Z,6.30
2022-09-23T16:02:54.383Z,3.57
2022-09-23T16:05:21.028Z,5.90
2022-09-23T16:07:42.101Z,4.07
2022-09-23T16:10:03.682Z,3.60
2022-09-23T16:12:25.265Z,3.90
2022-09-23T16:14:46.340Z,3.90
2022-09-23T16:17:09.233Z,3.60
2022-09-23T16:19:34.229Z,3.87
2022-09-23T16:21:55.605Z,6.50
2022-09-23T16:24:18.277Z,3.83
2022-09-23T16:26:43.156Z,7.00
2022-09-23T16:29:04.321Z,3.63
2022-09-23T16:31:26.752Z,3.73
2022-09-23T16:33:51.319Z,3.97
2022-09-23T16:36:15.248Z,3.93
2022-09-23T16:38:36.386Z,3.70
2022-09-23T16:41:00.835Z,3.83
2022-09-23T16:43:22.823Z,4.23
2022-09-23T16:45:45.856Z,4.60
2022-09-23T16:48:07.324Z,4.67
2022-09-23T16:50:31.867Z,4.53
2022-09-23T16:52:54.799Z,4.93
2022-09-23T16:55:17.444Z,3.97
2022-09-23T16:57:38.853Z,3.70
2022-09-23T17:00:17.929Z,3.97
2022-09-23T17:02:56.476Z,3.70
2022-09-23T17:05:19.272Z,4.73
2022-09-23T17:07:41.896Z,6.57
2022-09-23T17:10:03.283Z,6.10
2022-09-23T17:12:27.794Z,5.00
2022-09-23T17:14:49.174Z,4.70
2022-09-23T17:17:10.429Z,4.43
2022-09-23T17:19:33.798Z,4.13
2022-09-23T17:21:55.027Z,5.00
2022-09-23T17:24:19.032Z,4.77
2022-09-23T17:26:40.141Z,5.00
2022-09-23T17:29:02.104Z,5.63
2022-09-23T17:31:23.985Z,7.90
2022-09-23T17:33:44.884Z,6.63
2022-09-23T17:36:09.646Z,6.23
2022-09-23T17:38:31.175Z,5.43
2022-09-23T17:40:54.197Z,6.53
2022-09-23T17:43:15.533Z,6.47
2022-09-23T17:45:38.038Z,7.00
2022-09-23T17:48:00.115Z,8.93
2022-09-23T17:50:22.253Z,6.30
2022-09-23T17:52:43.602Z,6.73
2022-09-23T17:55:05.224Z,7.10
2022-09-23T17:57:27.801Z,6.90
2022-09-23T17:59:50.703Z,6.13
2022-09-23T18:02:15.553Z,6.10
2022-09-23T18:04:36.840Z,5.63
2022-09-23T18:06:58.189Z,5.50
2022-09-23T18:09:20.029Z,6.20
2022-09-23T18:11:42.266Z,6.23
2022-09-23T18:14:06.147Z,7.43
2022-09-23T18:16:29.008Z,6.57
2022-09-23T18:18:53.775Z,7.90
2022-09-23T18:21:14.723Z,9.27
2022-09-23T18:23:36.898Z,5.60
2022-09-23T18:26:02.129Z,4.90
2022-09-23T18:28:23.329Z,5.10
2022-09-23T18:30:54.115Z,5.97
2022-09-23T18:33:15.467Z,8.90
2022-09-23T18:35:36.920Z,6.30
2022-09-23T18:37:57.992Z,7.10
2022-09-23T18:40:19.687Z,6.07
2022-09-23T18:42:41.372Z,5.50
2022-09-23T18:45:02.692Z,5.67
2022-09-23T18:47:42.749Z,8.73
2022-09-23T18:50:27.072Z,7.20
2022-09-23T18:52:48.178Z,9.87
2022-09-23T18:55:09.798Z,5.90
2022-09-23T18:57:31.179Z,6.97
2022-09-23T18:59:52.461Z,10.80
2022-09-23T19:02:15.318Z,15.23
2022-09-23T19:04:37.758Z,6.87
2022-09-23T19:06:58.942Z,6.40
2022-09-23T19:09:20.331Z,8.83
2022-09-23T19:11:41.283Z,7.43
2022-09-23T19:14:03.790Z,7.27
2022-09-23T19:16:25.942Z,7.57
2022-09-23T19:18:47.565Z,7.13
2022-09-23T19:21:12.024Z,8.60
2022-09-23T19:23:34.466Z,7.73
2022-09-23T19:25:56.094Z,6.90
2022-09-23T19:28:16.985Z,6.80
2022-09-23T19:30:38.833Z,11.43
2022-09-23T19:33:00.268Z,7.53
2022-09-23T19:35:21.161Z,7.80
2022-09-23T19:37:46.023Z,8.90
2022-09-23T19:40:07.830Z,6.10
2022-09-23T19:42:30.002Z,6.10
2022-09-23T19:44:53.002Z,6.47
2022-09-23T19:47:17.362Z,5.97
2022-09-23T19:49:39.757Z,5.77
2022-09-23T19:52:00.928Z,6.97
2022-09-23T19:54:24.512Z,6.37
2022-09-23T19:56:47.097Z,6.37
2022-09-23T19:59:09.356Z,7.53
2022-09-23T20:01:31.995Z,7.27
2022-09-23T20:03:53.322Z,8.60
2022-09-23T20:06:15.268Z,11.77
2022-09-23T20:08:37.571Z,9.00
2022-09-23T20:11:00.067Z,8.73
2022-09-23T20:13:21.624Z,8.90
2022-09-23T20:15:43.967Z,8.23
2022-09-23T20:18:05.023Z,8.30
2022-09-23T20:20:26.312Z,8.43
2022-09-23T20:22:48.056Z,7.70
2022-09-23T20:25:13.289Z,9.17
2022-09-23T20:27:35.069Z,8.77
2022-09-23T20:29:57.020Z,9.27
2022-09-23T20:32:18.675Z,9.30
2022-09-23T20:34:41.183Z,9.50
2022-09-23T20:37:04.283Z,9.47
2022-09-23T20:39:25.353Z,9.80
2022-09-23T20:41:48.188Z,9.23
2022-09-23T20:44:12.330Z,11.07
2022-09-23T20:46:33.967Z,10.30
2022-09-23T20:48:56.879Z,10.93
2022-09-23T20:51:18.819Z,10.30
2022-09-23T20:53:40.135Z,10.30
2022-09-23T20:56:01.670Z,9.50
2022-09-23T20:58:27.058Z,10.00
2022-09-23T21:00:49.832Z,10.47
2022-09-23T21:03:11.273Z,10.80
2022-09-23T21:05:36.021Z,10.37
2022-09-23T21:08:02.620Z,12.13
2022-09-23T21:10:24.214Z,10.77
2022-09-23T21:12:50.373Z,11.07
2022-09-23T21:15:11.765Z,9.90
2022-09-23T21:17:34.626Z,10.37
2022-09-23T21:19:55.809Z,13.97
2022-09-23T21:22:18.089Z,11.87
2022-09-23T21:25:25.331Z,11.93
2022-09-23T21:27:20.534Z,11.10
2022-09-23T21:29:41.861Z,10.57
2022-09-23T21:32:03.733Z,11.07
2022-09-23T21:34:28.237Z,10.80
2022-09-23T21:36:49.704Z,11.10
2022-09-23T21:39:11.639Z,13.90
2022-09-23T21:41:33.117Z,10.90
2022-09-23T21:43:55.555Z,11.00
2022-09-23T21:46:20.013Z,10.80
2022-09-23T21:48:42.494Z,12.47
2022-09-23T21:51:06.134Z,12.07
2022-09-23T21:53:28.634Z,11.17
2022-09-23T21:55:50.089Z,11.90
2022-09-23T21:58:11.354Z,12.43
2022-09-23T22:00:32.923Z,13.03
2022-09-23T22:02:53.820Z,12.20
2022-09-23T22:05:15.285Z,12.77
2022-09-23T22:07:38.557Z,15.10
2022-09-23T22:09:59.567Z,12.40
2022-09-23T22:12:20.785Z,12.13
2022-09-23T22:14:43.347Z,11.67
2022-09-23T22:17:05.218Z,12.20
2022-09-23T22:19:27.091Z,11.03
2022-09-23T22:21:50.560Z,11.87
2022-09-23T22:24:13.367Z,11.20
2022-09-23T22:26:35.749Z,12.60
2022-09-23T22:29:14.617Z,11.07
2022-09-23T22:31:55.545Z,13.00
2022-09-23T22:34:47.521Z,15.17
2022-09-23T22:36:59.416Z,11.93
2022-09-23T22:39:22.118Z,11.20
2022-09-23T22:41:43.356Z,12.60
2022-09-23T22:44:04.681Z,12.10
2022-09-23T22:46:26.093Z,12.67
2022-09-23T22:48:47.204Z,12.90
2022-09-23T22:51:08.586Z,12.50
2022-09-23T22:53:29.771Z,12.10
2022-09-23T22:56:01.342Z,12.20
2022-09-23T22:58:32.195Z,11.20
2022-09-23T23:00:57.128Z,11.93
2022-09-23T23:03:20.426Z,11.07
2022-09-23T23:05:41.935Z,10.93
2022-09-23T23:08:03.124Z,12.23
2022-09-23T23:10:24.719Z,11.27
2022-09-23T23:12:49.151Z,11.70
2022-09-23T23:15:12.806Z,13.47
2022-09-23T23:17:34.628Z,13.37
2022-09-23T23:19:55.635Z,13.33
2022-09-23T23:22:17.141Z,13.10
2022-09-23T23:24:38.600Z,13.43
2022-09-23T23:26:59.962Z,14.50
2022-09-23T23:29:23.328Z,13.93
2022-09-23T23:31:44.966Z,15.27
2022-09-23T23:34:08.493Z,14.60
2022-09-23T23:36:30.730Z,13.27
2022-09-23T23:38:52.645Z,12.57
2022-09-23T23:41:14.949Z,13.77
2022-09-23T23:43:36.416Z,12.60
2022-09-23T23:46:00.350Z,13.70
2022-09-23T23:48:21.676Z,14.00
2022-09-23T23:50:43.149Z,13.67
2022-09-23T23:53:05.344Z,12.67
2022-09-23T23:55:26.694Z,12.87
2022-09-23T23:57:48.106Z,13.00
